sensor_id;sensor_type;location;lat;lon;timestamp;P1;durP1;ratioP1;P2;durP2;ratioP2
23680;SDS011;62915;50.832;4.462;2023-08-06T00:00:41;3.50;;;1.90;;
23680;SDS011;62915;50.832;4.462;2023-08-06T00:03:07;4.60;;;1.80;;
23680;SDS011;62915;50.832;4.462;2023-08-06T00:05:33;4.32;;;1.73;;
23680;SDS011;62915;50.832;4.462;2023-08-06T00:07:59;4.03;;;2.22;;
23680;SDS011;62915;50.832;4.462;2023-08-06T00:10:24;5.63;;;1.77;;
23680;SDS011;62915;50.832;4.462;2023-08-06T00:12:50;4.88;;;2.25;;
23680;SDS011;62915;50.832;4.462;2023-08-06T00:15:16;4.50;;;1.98;;
23680;SDS011;62915;50.832;4.462;2023-08-06T00:17:42;8.05;;;2.20;;
23680;SDS011;62915;50.832;4.462;2023-08-06T00:20:09;4.40;;;2.20;;
23680;SDS011;62915;50.832;4.462;2023-08-06T00:22:36;2.95;;;2.10;;
23680;SDS011;62915;50.832;4.462;2023-08-06T00:25:03;6.68;;;2.33;;
23680;SDS011;62915;50.832;4.462;2023-08-06T00:27:29;4.72;;;2.17;;
23680;SDS011;62915;50.832;4.462;2023-08-06T00:29:55;3.60;;;2.63;;
23680;SDS011;62915;50.832;4.462;2023-08-06T00:32:21;5.63;;;2.50;;
23680;SDS011;62915;50.832;4.462;2023-08-06T00:34:47;7.60;;;2.60;;
23680;SDS011;62915;50.832;4.462;2023-08-06T00:37:15;5.45;;;2.80;;
23680;SDS011;62915;50.832;4.462;2023-08-06T00:39:44;8.65;;;3.22;;
23680;SDS011;62915;50.832;4.462;2023-08-06T00:42:10;6.40;;;2.95;;
23680;SDS011;62915;50.832;4.462;2023-08-06T00:44:37;5.50;;;3.13;;
23680;SDS011;62915;50.832;4.462;2023-08-06T00:47:03;6.07;;;3.60;;
23680;SDS011;62915;50.832;4.462;2023-08-06T00:49:29;9.43;;;4.07;;
23680;SDS011;62915;50.832;4.462;2023-08-06T00:51:55;7.40;;;3.92;;
23680;SDS011;62915;50.832;4.462;2023-08-06T00:54:22;6.45;;;4.18;;
23680;SDS011;62915;50.832;4.462;2023-08-06T00:56:50;13.18;;;4.82;;
23680;SDS011;62915;50.832;4.462;2023-08-06T00:59:15;11.60;;;4.43;;
23680;SDS011;62915;50.832;4.462;2023-08-06T01:01:41;10.82;;;5.35;;
23680;SDS011;62915;50.832;4.462;2023-08-06T01:04:08;15.48;;;5.88;;
23680;SDS011;62915;50.832;4.462;2023-08-06T01:06:45;10.90;;;5.20;;
23680;SDS011;62915;50.832;4.462;2023-08-06T01:09:19;11.60;;;5.68;;
23680;SDS011;62915;50.832;4.462;2023-08-06T01:11:59;12.18;;;5.95;;
23680;SDS011;62915;50.832;4.462;2023-08-06T01:14:33;10.27;;;5.60;;
23680;SDS011;62915;50.832;4.462;2023-08-06T01:17:14;6.35;;;5.05;;
23680;SDS011;62915;50.832;4.462;2023-08-06T01:19:43;12.15;;;5.45;;
23680;SDS011;62915;50.832;4.462;2023-08-06T01:22:08;10.05;;;5.25;;
23680;SDS011;62915;50.832;4.462;2023-08-06T01:24:34;10.63;;;6.05;;
23680;SDS011;62915;50.832;4.462;2023-08-06T01:27:04;12.48;;;6.13;;
23680;SDS011;62915;50.832;4.462;2023-08-06T01:29:41;10.63;;;7.13;;
23680;SDS011;62915;50.832;4.462;2023-08-06T01:32:12;14.27;;;6.85;;
23680;SDS011;62915;50.832;4.462;2023-08-06T01:34:41;10.77;;;6.65;;
23680;SDS011;62915;50.832;4.462;2023-08-06T01:37:10;20.27;;;7.55;;
23680;SDS011;62915;50.832;4.462;2023-08-06T01:39:37;12.60;;;7.28;;
23680;SDS011;62915;50.832;4.462;2023-08-06T01:42:06;9.73;;;6.82;;
23680;SDS011;62915;50.832;4.462;2023-08-06T01:44:32;14.30;;;7.20;;
23680;SDS011;62915;50.832;4.462;2023-08-06T01:46:58;11.70;;;7.07;;
23680;SDS011;62915;50.832;4.462;2023-08-06T01:49:24;11.40;;;6.82;;
23680;SDS011;62915;50.832;4.462;2023-08-06T01:51:52;12.88;;;7.18;;
23680;SDS011;62915;50.832;4.462;2023-08-06T01:54:17;14.88;;;7.70;;
23680;SDS011;62915;50.832;4.462;2023-08-06T01:56:43;16.70;;;7.55;;
23680;SDS011;62915;50.832;4.462;2023-08-06T01:59:09;13.48;;;6.60;;
23680;SDS011;62915;50.832;4.462;2023-08-06T02:01:35;18.02;;;7.00;;
23680;SDS011;62915;50.832;4.462;2023-08-06T02:04:00;14.13;;;6.63;;
23680;SDS011;62915;50.832;4.462;2023-08-06T02:06:26;13.10;;;5.72;;
23680;SDS011;62915;50.832;4.462;2023-08-06T02:08:52;15.88;;;6.05;;
23680;SDS011;62915;50.832;4.462;2023-08-06T02:11:18;11.40;;;6.57;;
23680;SDS011;62915;50.832;4.462;2023-08-06T02:13:45;9.85;;;6.28;;
23680;SDS011;62915;50.832;4.462;2023-08-06T02:16:11;14.77;;;6.38;;
23680;SDS011;62915;50.832;4.462;2023-08-06T02:18:36;9.73;;;4.90;;
23680;SDS011;62915;50.832;4.462;2023-08-06T02:21:02;8.90;;;4.53;;
23680;SDS011;62915;50.832;4.462;2023-08-06T02:23:28;10.25;;;3.95;;
23680;SDS011;62915;50.832;4.462;2023-08-06T02:26:04;8.95;;;3.22;;
23680;SDS011;62915;50.832;4.462;2023-08-06T02:28:30;10.00;;;3.38;;
23680;SDS011;62915;50.832;4.462;2023-08-06T02:30:57;9.75;;;3.28;;
23680;SDS011;62915;50.832;4.462;2023-08-06T02:33:23;8.35;;;3.17;;
23680;SDS011;62915;50.832;4.462;2023-08-06T02:35:49;10.77;;;3.60;;
23680;SDS011;62915;50.832;4.462;2023-08-06T02:38:14;12.65;;;3.40;;
23680;SDS011;62915;50.832;4.462;2023-08-06T02:40:46;7.25;;;3.10;;
23680;SDS011;62915;50.832;4.462;2023-08-06T02:43:12;16.77;;;3.17;;
23680;SDS011;62915;50.832;4.462;2023-08-06T02:45:39;10.20;;;2.70;;
23680;SDS011;62915;50.832;4.462;2023-08-06T02:48:05;10.48;;;3.25;;
23680;SDS011;62915;50.832;4.462;2023-08-06T02:50:31;10.82;;;3.50;;
23680;SDS011;62915;50.832;4.462;2023-08-06T02:53:04;9.65;;;3.30;;
23680;SDS011;62915;50.832;4.462;2023-08-06T02:55:30;8.15;;;2.70;;
23680;SDS011;62915;50.832;4.462;2023-08-06T02:57:56;8.18;;;2.75;;
23680;SDS011;62915;50.832;4.462;2023-08-06T03:00:22;13.20;;;2.78;;
23680;SDS011;62915;50.832;4.462;2023-08-06T03:02:48;8.13;;;2.63;;
23680;SDS011;62915;50.832;4.462;2023-08-06T03:05:13;11.73;;;2.85;;
23680;SDS011;62915;50.832;4.462;2023-08-06T03:07:39;7.18;;;2.78;;
23680;SDS011;62915;50.832;4.462;2023-08-06T03:10:05;11.02;;;2.83;;
23680;SDS011;62915;50.832;4.462;2023-08-06T03:12:31;10.20;;;3.80;;
23680;SDS011;62915;50.832;4.462;2023-08-06T03:14:57;12.68;;;3.92;;
23680;SDS011;62915;50.832;4.462;2023-08-06T03:17:23;11.43;;;4.40;;
23680;SDS011;62915;50.832;4.462;2023-08-06T03:19:48;11.77;;;4.28;;
23680;SDS011;62915;50.832;4.462;2023-08-06T03:22:14;14.68;;;4.43;;
23680;SDS011;62915;50.832;4.462;2023-08-06T03:24:40;9.68;;;4.38;;
23680;SDS011;62915;50.832;4.462;2023-08-06T03:27:06;13.30;;;4.43;;
23680;SDS011;62915;50.832;4.462;2023-08-06T03:29:32;10.98;;;5.35;;
23680;SDS011;62915;50.832;4.462;2023-08-06T03:31:59;13.68;;;5.50;;
23680;SDS011;62915;50.832;4.462;2023-08-06T03:34:25;15.30;;;6.00;;
23680;SDS011;62915;50.832;4.462;2023-08-06T03:36:52;17.30;;;6.25;;
23680;SDS011;62915;50.832;4.462;2023-08-06T03:39:18;15.52;;;9.48;;
23680;SDS011;62915;50.832;4.462;2023-08-06T03:41:44;16.90;;;10.27;;
23680;SDS011;62915;50.832;4.462;2023-08-06T03:44:10;19.90;;;10.52;;
23680;SDS011;62915;50.832;4.462;2023-08-06T03:46:35;26.23;;;12.43;;
23680;SDS011;62915;50.832;4.462;2023-08-06T03:49:01;24.17;;;12.07;;
23680;SDS011;62915;50.832;4.462;2023-08-06T03:51:27;24.98;;;13.15;;
23680;SDS011;62915;50.832;4.462;2023-08-06T03:53:53;29.02;;;14.38;;
23680;SDS011;62915;50.832;4.462;2023-08-06T03:56:20;21.70;;;14.00;;
23680;SDS011;62915;50.832;4.462;2023-08-06T03:58:46;23.38;;;13.77;;
23680;SDS011;62915;50.832;4.462;2023-08-06T04:01:12;19.15;;;12.63;;
23680;SDS011;62915;50.832;4.462;2023-08-06T04:03:37;17.27;;;10.63;;
23680;SDS011;62915;50.832;4.462;2023-08-06T04:06:03;16.95;;;9.98;;
23680;SDS011;62915;50.832;4.462;2023-08-06T04:08:29;14.57;;;8.90;;
23680;SDS011;62915;50.832;4.462;2023-08-06T04:10:55;14.38;;;6.93;;
23680;SDS011;62915;50.832;4.462;2023-08-06T04:13:21;8.82;;;5.97;;
23680;SDS011;62915;50.832;4.462;2023-08-06T04:15:46;7.07;;;4.85;;
23680;SDS011;62915;50.832;4.462;2023-08-06T04:18:13;5.15;;;4.07;;
23680;SDS011;62915;50.832;4.462;2023-08-06T04:20:43;3.85;;;2.30;;
23680;SDS011;62915;50.832;4.462;2023-08-06T04:23:09;1.67;;;0.80;;
23680;SDS011;62915;50.832;4.462;2023-08-06T04:25:35;0.75;;;0.60;;
23680;SDS011;62915;50.832;4.462;2023-08-06T04:28:01;0.85;;;0.73;;
23680;SDS011;62915;50.832;4.462;2023-08-06T04:30:27;0.80;;;0.80;;
23680;SDS011;62915;50.832;4.462;2023-08-06T04:32:53;0.90;;;0.70;;
23680;SDS011;62915;50.832;4.462;2023-08-06T04:35:18;1.10;;;1.00;;
23680;SDS011;62915;50.832;4.462;2023-08-06T04:37:44;1.77;;;1.10;;
23680;SDS011;62915;50.832;4.462;2023-08-06T04:40:11;1.52;;;1.02;;
23680;SDS011;62915;50.832;4.462;2023-08-06T04:42:38;5.43;;;1.52;;
23680;SDS011;62915;50.832;4.462;2023-08-06T04:45:04;4.15;;;1.95;;
23680;SDS011;62915;50.832;4.462;2023-08-06T04:47:30;6.82;;;2.38;;
23680;SDS011;62915;50.832;4.462;2023-08-06T04:49:56;3.38;;;1.90;;
23680;SDS011;62915;50.832;4.462;2023-08-06T04:52:22;8.68;;;2.15;;
23680;SDS011;62915;50.832;4.462;2023-08-06T04:54:52;3.95;;;2.58;;
23680;SDS011;62915;50.832;4.462;2023-08-06T04:57:18;8.60;;;2.78;;
23680;SDS011;62915;50.832;4.462;2023-08-06T04:59:45;3.67;;;2.60;;
23680;SDS011;62915;50.832;4.462;2023-08-06T05:02:12;10.38;;;3.05;;
23680;SDS011;62915;50.832;4.462;2023-08-06T05:04:37;8.02;;;3.13;;
23680;SDS011;62915;50.832;4.462;2023-08-06T05:07:05;8.18;;;3.47;;
23680;SDS011;62915;50.832;4.462;2023-08-06T05:09:31;6.38;;;3.30;;
23680;SDS011;62915;50.832;4.462;2023-08-06T05:11:57;6.82;;;3.25;;
23680;SDS011;62915;50.832;4.462;2023-08-06T05:14:23;7.53;;;3.10;;
23680;SDS011;62915;50.832;4.462;2023-08-06T05:16:48;7.15;;;3.47;;
23680;SDS011;62915;50.832;4.462;2023-08-06T05:19:14;6.32;;;3.60;;
23680;SDS011;62915;50.832;4.462;2023-08-06T05:21:40;7.30;;;3.53;;
23680;SDS011;62915;50.832;4.462;2023-08-06T05:24:06;8.57;;;3.78;;
23680;SDS011;62915;50.832;4.462;2023-08-06T05:26:31;8.00;;;3.72;;
23680;SDS011;62915;50.832;4.462;2023-08-06T05:28:57;8.75;;;3.70;;
23680;SDS011;62915;50.832;4.462;2023-08-06T05:31:23;6.55;;;3.42;;
23680;SDS011;62915;50.832;4.462;2023-08-06T05:33:49;6.82;;;2.83;;
23680;SDS011;62915;50.832;4.462;2023-08-06T05:36:15;8.90;;;3.70;;
23680;SDS011;62915;50.832;4.462;2023-08-06T05:38:42;7.90;;;3.90;;
23680;SDS011;62915;50.832;4.462;2023-08-06T05:41:08;7.43;;;3.55;;
23680;SDS011;62915;50.832;4.462;2023-08-06T05:43:34;9.68;;;3.22;;
23680;SDS011;62915;50.832;4.462;2023-08-06T05:46:00;10.43;;;4.20;;
23680;SDS011;62915;50.832;4.462;2023-08-06T05:48:26;12.05;;;3.60;;
23680;SDS011;62915;50.832;4.462;2023-08-06T05:50:53;8.57;;;4.00;;
23680;SDS011;62915;50.832;4.462;2023-08-06T05:53:18;10.73;;;4.53;;
23680;SDS011;62915;50.832;4.462;2023-08-06T05:55:44;10.85;;;4.03;;
23680;SDS011;62915;50.832;4.462;2023-08-06T05:58:10;11.68;;;4.68;;
23680;SDS011;62915;50.832;4.462;2023-08-06T06:00:36;12.15;;;4.32;;
23680;SDS011;62915;50.832;4.462;2023-08-06T06:03:02;13.32;;;4.22;;
23680;SDS011;62915;50.832;4.462;2023-08-06T06:05:28;11.35;;;4.15;;
23680;SDS011;62915;50.832;4.462;2023-08-06T06:07:54;7.97;;;3.50;;
23680;SDS011;62915;50.832;4.462;2023-08-06T06:10:19;12.20;;;4.22;;
23680;SDS011;62915;50.832;4.462;2023-08-06T06:12:45;13.55;;;4.10;;
23680;SDS011;62915;50.832;4.462;2023-08-06T06:15:11;9.60;;;3.97;;
23680;SDS011;62915;50.832;4.462;2023-08-06T06:17:37;15.75;;;3.75;;
23680;SDS011;62915;50.832;4.462;2023-08-06T06:20:03;11.00;;;3.30;;
23680;SDS011;62915;50.832;4.462;2023-08-06T06:22:30;8.75;;;3.83;;
23680;SDS011;62915;50.832;4.462;2023-08-06T06:24:56;10.27;;;3.75;;
23680;SDS011;62915;50.832;4.462;2023-08-06T06:27:21;10.48;;;3.78;;
23680;SDS011;62915;50.832;4.462;2023-08-06T06:29:47;10.48;;;4.30;;
23680;SDS011;62915;50.832;4.462;2023-08-06T06:32:13;13.32;;;4.00;;
23680;SDS011;62915;50.832;4.462;2023-08-06T06:34:38;15.85;;;4.82;;
23680;SDS011;62915;50.832;4.462;2023-08-06T06:37:04;12.98;;;4.28;;
23680;SDS011;62915;50.832;4.462;2023-08-06T06:39:30;9.57;;;4.72;;
23680;SDS011;62915;50.832;4.462;2023-08-06T06:41:56;13.25;;;4.80;;
23680;SDS011;62915;50.832;4.462;2023-08-06T06:44:21;13.63;;;4.43;;
23680;SDS011;62915;50.832;4.462;2023-08-06T06:46:47;14.10;;;4.15;;
23680;SDS011;62915;50.832;4.462;2023-08-06T06:49:13;9.30;;;4.65;;
23680;SDS011;62915;50.832;4.462;2023-08-06T06:51:39;15.88;;;4.82;;
23680;SDS011;62915;50.832;4.462;2023-08-06T06:54:04;13.65;;;4.38;;
23680;SDS011;62915;50.832;4.462;2023-08-06T06:56:30;14.52;;;4.82;;
23680;SDS011;62915;50.832;4.462;2023-08-06T06:58:56;16.55;;;4.85;;
23680;SDS011;62915;50.832;4.462;2023-08-06T07:01:21;14.40;;;4.75;;
23680;SDS011;62915;50.832;4.462;2023-08-06T07:03:47;10.63;;;3.97;;
23680;SDS011;62915;50.832;4.462;2023-08-06T07:06:13;10.40;;;3.92;;
23680;SDS011;62915;50.832;4.462;2023-08-06T07:08:40;11.82;;;4.15;;
23680;SDS011;62915;50.832;4.462;2023-08-06T07:11:06;11.02;;;3.75;;
23680;SDS011;62915;50.832;4.462;2023-08-06T07:13:33;11.55;;;3.95;;
23680;SDS011;62915;50.832;4.462;2023-08-06T07:16:00;8.60;;;3.55;;
23680;SDS011;62915;50.832;4.462;2023-08-06T07:18:25;9.60;;;3.10;;
23680;SDS011;62915;50.832;4.462;2023-08-06T07:20:52;10.45;;;3.22;;
23680;SDS011;62915;50.832;4.462;2023-08-06T07:23:23;10.02;;;3.08;;
23680;SDS011;62915;50.832;4.462;2023-08-06T07:25:50;10.85;;;3.13;;
23680;SDS011;62915;50.832;4.462;2023-08-06T07:28:16;10.75;;;2.58;;
23680;SDS011;62915;50.832;4.462;2023-08-06T07:30:42;13.32;;;2.58;;
23680;SDS011;62915;50.832;4.462;2023-08-06T07:33:09;8.93;;;2.80;;
23680;SDS011;62915;50.832;4.462;2023-08-06T07:35:35;7.93;;;2.30;;
23680;SDS011;62915;50.832;4.462;2023-08-06T07:38:01;9.40;;;2.35;;
23680;SDS011;62915;50.832;4.462;2023-08-06T07:40:27;7.63;;;1.83;;
23680;SDS011;62915;50.832;4.462;2023-08-06T07:42:53;14.00;;;2.10;;
23680;SDS011;62915;50.832;4.462;2023-08-06T07:45:20;12.20;;;2.08;;
23680;SDS011;62915;50.832;4.462;2023-08-06T07:47:45;8.63;;;2.00;;
23680;SDS011;62915;50.832;4.462;2023-08-06T07:50:12;9.23;;;1.75;;
23680;SDS011;62915;50.832;4.462;2023-08-06T07:52:38;12.52;;;2.10;;
23680;SDS011;62915;50.832;4.462;2023-08-06T07:55:04;12.65;;;1.83;;
23680;SDS011;62915;50.832;4.462;2023-08-06T07:57:33;8.05;;;1.80;;
23680;SDS011;62915;50.832;4.462;2023-08-06T07:59:59;6.53;;;1.67;;
23680;SDS011;62915;50.832;4.462;2023-08-06T08:02:26;8.65;;;1.65;;
23680;SDS011;62915;50.832;4.462;2023-08-06T08:04:52;11.85;;;1.83;;
23680;SDS011;62915;50.832;4.462;2023-08-06T08:07:18;10.00;;;1.50;;
23680;SDS011;62915;50.832;4.462;2023-08-06T08:09:43;11.30;;;1.88;;
23680;SDS011;62915;50.832;4.462;2023-08-06T08:12:09;14.90;;;2.55;;
23680;SDS011;62915;50.832;4.462;2023-08-06T08:14:35;10.80;;;1.98;;
23680;SDS011;62915;50.832;4.462;2023-08-06T08:17:02;8.05;;;1.42;;
23680;SDS011;62915;50.832;4.462;2023-08-06T08:19:29;11.88;;;2.17;;
23680;SDS011;62915;50.832;4.462;2023-08-06T08:21:55;6.95;;;1.65;;
23680;SDS011;62915;50.832;4.462;2023-08-06T08:24:21;9.15;;;1.80;;
23680;SDS011;62915;50.832;4.462;2023-08-06T08:26:49;9.07;;;2.00;;
23680;SDS011;62915;50.832;4.462;2023-08-06T08:29:22;11.35;;;2.10;;
23680;SDS011;62915;50.832;4.462;2023-08-06T08:31:48;5.65;;;1.70;;
23680;SDS011;62915;50.832;4.462;2023-08-06T08:34:17;6.80;;;1.77;;
23680;SDS011;62915;50.832;4.462;2023-08-06T08:36:43;4.88;;;1.73;;
23680;SDS011;62915;50.832;4.462;2023-08-06T08:39:12;8.43;;;1.55;;
23680;SDS011;62915;50.832;4.462;2023-08-06T08:41:38;10.98;;;1.92;;
23680;SDS011;62915;50.832;4.462;2023-08-06T08:44:13;6.53;;;1.85;;
23680;SDS011;62915;50.832;4.462;2023-08-06T08:46:41;8.38;;;2.55;;
23680;SDS011;62915;50.832;4.462;2023-08-06T08:49:09;9.48;;;1.95;;
23680;SDS011;62915;50.832;4.462;2023-08-06T08:51:36;6.97;;;2.05;;
23680;SDS011;62915;50.832;4.462;2023-08-06T08:54:03;8.10;;;2.45;;
23680;SDS011;62915;50.832;4.462;2023-08-06T08:56:29;8.70;;;2.17;;
23680;SDS011;62915;50.832;4.462;2023-08-06T08:58:56;10.02;;;1.90;;
23680;SDS011;62915;50.832;4.462;2023-08-06T09:01:22;9.77;;;1.83;;
23680;SDS011;62915;50.832;4.462;2023-08-06T09:03:48;8.70;;;2.15;;
23680;SDS011;62915;50.832;4.462;2023-08-06T09:06:15;10.18;;;2.28;;
23680;SDS011;62915;50.832;4.462;2023-08-06T09:08:46;9.77;;;2.00;;
23680;SDS011;62915;50.832;4.462;2023-08-06T09:11:16;7.50;;;1.90;;
23680;SDS011;62915;50.832;4.462;2023-08-06T09:13:45;15.05;;;2.25;;
23680;SDS011;62915;50.832;4.462;2023-08-06T09:16:12;9.75;;;2.25;;
23680;SDS011;62915;50.832;4.462;2023-08-06T09:18:38;9.05;;;2.15;;
23680;SDS011;62915;50.832;4.462;2023-08-06T09:21:05;12.70;;;2.67;;
23680;SDS011;62915;50.832;4.462;2023-08-06T09:23:38;10.88;;;2.03;;
23680;SDS011;62915;50.832;4.462;2023-08-06T09:26:04;8.95;;;1.80;;
23680;SDS011;62915;50.832;4.462;2023-08-06T09:28:37;10.40;;;2.00;;
23680;SDS011;62915;50.832;4.462;2023-08-06T09:31:04;7.95;;;1.60;;
23680;SDS011;62915;50.832;4.462;2023-08-06T09:33:30;7.90;;;1.77;;
23680;SDS011;62915;50.832;4.462;2023-08-06T09:35:55;10.98;;;2.30;;
23680;SDS011;62915;50.832;4.462;2023-08-06T09:38:21;12.23;;;2.45;;
23680;SDS011;62915;50.832;4.462;2023-08-06T09:40:47;6.28;;;2.22;;
23680;SDS011;62915;50.832;4.462;2023-08-06T09:43:14;10.55;;;1.77;;
23680;SDS011;62915;50.832;4.462;2023-08-06T09:45:41;9.63;;;2.63;;
23680;SDS011;62915;50.832;4.462;2023-08-06T09:48:09;6.18;;;1.98;;
23680;SDS011;62915;50.832;4.462;2023-08-06T09:50:36;6.95;;;2.38;;
23680;SDS011;62915;50.832;4.462;2023-08-06T09:53:04;7.45;;;2.00;;
23680;SDS011;62915;50.832;4.462;2023-08-06T09:55:31;4.75;;;2.30;;
23680;SDS011;62915;50.832;4.462;2023-08-06T09:57:58;7.63;;;2.00;;
23680;SDS011;62915;50.832;4.462;2023-08-06T10:00:24;6.40;;;1.98;;
23680;SDS011;62915;50.832;4.462;2023-08-06T10:02:51;8.80;;;2.35;;
23680;SDS011;62915;50.832;4.462;2023-08-06T10:05:20;12.50;;;2.30;;
23680;SDS011;62915;50.832;4.462;2023-08-06T10:07:47;8.20;;;2.20;;
23680;SDS011;62915;50.832;4.462;2023-08-06T10:10:16;9.35;;;2.10;;
23680;SDS011;62915;50.832;4.462;2023-08-06T10:12:44;10.40;;;1.70;;
23680;SDS011;62915;50.832;4.462;2023-08-06T10:15:14;7.63;;;2.03;;
23680;SDS011;62915;50.832;4.462;2023-08-06T10:17:42;9.05;;;2.30;;
23680;SDS011;62915;50.832;4.462;2023-08-06T10:20:10;9.15;;;2.08;;
23680;SDS011;62915;50.832;4.462;2023-08-06T10:22:42;9.57;;;2.70;;
23680;SDS011;62915;50.832;4.462;2023-08-06T10:25:10;8.70;;;2.20;;
23680;SDS011;62915;50.832;4.462;2023-08-06T10:30:27;7.50;;;2.00;;
23680;SDS011;62915;50.832;4.462;2023-08-06T10:35:29;13.48;;;1.90;;
23680;SDS011;62915;50.832;4.462;2023-08-06T10:38:11;8.43;;;1.90;;
23680;SDS011;62915;50.832;4.462;2023-08-06T10:43:26;8.77;;;1.55;;
23680;SDS011;62915;50.832;4.462;2023-08-06T10:45:53;6.72;;;1.30;;
23680;SDS011;62915;50.832;4.462;2023-08-06T10:51:01;8.68;;;2.28;;
23680;SDS011;62915;50.832;4.462;2023-08-06T10:53:28;6.97;;;1.90;;
23680;SDS011;62915;50.832;4.462;2023-08-06T10:55:54;6.72;;;1.77;;
23680;SDS011;62915;50.832;4.462;2023-08-06T10:58:20;6.07;;;1.92;;
23680;SDS011;62915;50.832;4.462;2023-08-06T11:00:46;9.52;;;2.30;;
23680;SDS011;62915;50.832;4.462;2023-08-06T11:03:11;9.32;;;2.55;;
23680;SDS011;62915;50.832;4.462;2023-08-06T11:05:38;11.27;;;2.42;;
23680;SDS011;62915;50.832;4.462;2023-08-06T11:08:04;29.70;;;12.85;;
23680;SDS011;62915;50.832;4.462;2023-08-06T11:10:32;16.83;;;2.83;;
23680;SDS011;62915;50.832;4.462;2023-08-06T11:13:02;15.07;;;5.03;;
23680;SDS011;62915;50.832;4.462;2023-08-06T11:15:29;18.15;;;8.07;;
23680;SDS011;62915;50.832;4.462;2023-08-06T11:17:56;12.63;;;2.90;;
23680;SDS011;62915;50.832;4.462;2023-08-06T11:20:21;11.63;;;2.85;;
23680;SDS011;62915;50.832;4.462;2023-08-06T11:22:48;15.60;;;3.30;;
23680;SDS011;62915;50.832;4.462;2023-08-06T11:25:13;10.00;;;2.65;;
23680;SDS011;62915;50.832;4.462;2023-08-06T11:27:39;5.30;;;2.30;;
23680;SDS011;62915;50.832;4.462;2023-08-06T11:30:05;13.07;;;2.90;;
23680;SDS011;62915;50.832;4.462;2023-08-06T11:32:31;8.32;;;2.45;;
23680;SDS011;62915;50.832;4.462;2023-08-06T11:34:58;11.23;;;2.65;;
23680;SDS011;62915;50.832;4.462;2023-08-06T11:37:24;11.65;;;2.47;;
23680;SDS011;62915;50.832;4.462;2023-08-06T11:39:50;8.48;;;2.15;;
23680;SDS011;62915;50.832;4.462;2023-08-06T11:42:17;12.02;;;2.40;;
23680;SDS011;62915;50.832;4.462;2023-08-06T11:44:43;9.52;;;1.90;;
23680;SDS011;62915;50.832;4.462;2023-08-06T11:47:15;6.43;;;2.13;;
23680;SDS011;62915;50.832;4.462;2023-08-06T11:49:43;9.55;;;2.13;;
23680;SDS011;62915;50.832;4.462;2023-08-06T11:54:44;8.10;;;2.28;;
23680;SDS011;62915;50.832;4.462;2023-08-06T11:57:11;5.82;;;1.70;;
23680;SDS011;62915;50.832;4.462;2023-08-06T11:59:38;5.88;;;1.80;;
23680;SDS011;62915;50.832;4.462;2023-08-06T12:02:05;6.57;;;1.40;;
23680;SDS011;62915;50.832;4.462;2023-08-06T12:07:28;7.32;;;2.42;;
23680;SDS011;62915;50.832;4.462;2023-08-06T12:09:55;8.57;;;2.08;;
23680;SDS011;62915;50.832;4.462;2023-08-06T12:12:21;6.38;;;1.48;;
23680;SDS011;62915;50.832;4.462;2023-08-06T12:14:47;8.57;;;2.10;;
23680;SDS011;62915;50.832;4.462;2023-08-06T12:17:13;11.30;;;2.78;;
23680;SDS011;62915;50.832;4.462;2023-08-06T12:19:40;6.93;;;1.80;;
23680;SDS011;62915;50.832;4.462;2023-08-06T12:22:07;10.43;;;1.98;;
23680;SDS011;62915;50.832;4.462;2023-08-06T12:24:33;7.45;;;2.30;;
23680;SDS011;62915;50.832;4.462;2023-08-06T12:27:02;12.23;;;2.63;;
23680;SDS011;62915;50.832;4.462;2023-08-06T12:29:28;12.15;;;2.38;;
23680;SDS011;62915;50.832;4.462;2023-08-06T12:31:56;6.85;;;2.08;;
23680;SDS011;62915;50.832;4.462;2023-08-06T12:34:22;11.85;;;2.20;;
23680;SDS011;62915;50.832;4.462;2023-08-06T12:36:48;9.38;;;2.97;;
23680;SDS011;62915;50.832;4.462;2023-08-06T12:39:14;11.32;;;2.10;;
23680;SDS011;62915;50.832;4.462;2023-08-06T12:41:40;8.52;;;2.00;;
23680;SDS011;62915;50.832;4.462;2023-08-06T12:44:09;6.63;;;2.08;;
23680;SDS011;62915;50.832;4.462;2023-08-06T12:46:34;9.57;;;2.20;;
23680;SDS011;62915;50.832;4.462;2023-08-06T12:49:00;7.72;;;2.40;;
23680;SDS011;62915;50.832;4.462;2023-08-06T12:51:26;7.47;;;2.25;;
23680;SDS011;62915;50.832;4.462;2023-08-06T12:53:52;8.35;;;2.03;;
23680;SDS011;62915;50.832;4.462;2023-08-06T12:56:19;3.90;;;1.88;;
23680;SDS011;62915;50.832;4.462;2023-08-06T12:58:45;12.98;;;2.45;;
23680;SDS011;62915;50.832;4.462;2023-08-06T13:01:11;10.10;;;2.38;;
23680;SDS011;62915;50.832;4.462;2023-08-06T13:03:37;4.47;;;1.52;;
23680;SDS011;62915;50.832;4.462;2023-08-06T13:06:03;8.52;;;1.88;;
23680;SDS011;62915;50.832;4.462;2023-08-06T13:08:29;5.13;;;1.80;;
23680;SDS011;62915;50.832;4.462;2023-08-06T13:10:54;8.38;;;1.70;;
23680;SDS011;62915;50.832;4.462;2023-08-06T13:13:20;9.32;;;2.20;;
23680;SDS011;62915;50.832;4.462;2023-08-06T13:15:46;12.88;;;2.22;;
23680;SDS011;62915;50.832;4.462;2023-08-06T13:18:11;9.13;;;2.45;;
23680;SDS011;62915;50.832;4.462;2023-08-06T13:20:38;6.53;;;2.13;;
23680;SDS011;62915;50.832;4.462;2023-08-06T13:23:08;7.70;;;1.90;;
23680;SDS011;62915;50.832;4.462;2023-08-06T13:25:33;8.77;;;2.22;;
23680;SDS011;62915;50.832;4.462;2023-08-06T13:28:02;11.38;;;2.40;;
23680;SDS011;62915;50.832;4.462;2023-08-06T13:30:28;7.45;;;2.22;;
23680;SDS011;62915;50.832;4.462;2023-08-06T13:32:54;8.88;;;2.55;;
23680;SDS011;62915;50.832;4.462;2023-08-06T13:35:22;9.80;;;2.50;;
23680;SDS011;62915;50.832;4.462;2023-08-06T13:37:48;9.35;;;2.05;;
23680;SDS011;62915;50.832;4.462;2023-08-06T13:40:14;6.28;;;2.22;;
23680;SDS011;62915;50.832;4.462;2023-08-06T13:42:40;6.50;;;1.90;;
23680;SDS011;62915;50.832;4.462;2023-08-06T13:45:06;10.02;;;2.05;;
23680;SDS011;62915;50.832;4.462;2023-08-06T13:47:32;9.38;;;2.20;;
23680;SDS011;62915;50.832;4.462;2023-08-06T13:49:58;7.82;;;2.55;;
23680;SDS011;62915;50.832;4.462;2023-08-06T13:52:27;9.05;;;2.22;;
23680;SDS011;62915;50.832;4.462;2023-08-06T13:54:53;9.18;;;2.38;;
23680;SDS011;62915;50.832;4.462;2023-08-06T13:57:19;10.50;;;2.13;;
23680;SDS011;62915;50.832;4.462;2023-08-06T13:59:44;11.27;;;2.45;;
23680;SDS011;62915;50.832;4.462;2023-08-06T14:02:10;6.88;;;2.00;;
23680;SDS011;62915;50.832;4.462;2023-08-06T14:04:36;10.20;;;2.38;;
23680;SDS011;62915;50.832;4.462;2023-08-06T14:07:05;8.85;;;2.15;;
23680;SDS011;62915;50.832;4.462;2023-08-06T14:09:30;6.32;;;1.40;;
23680;SDS011;62915;50.832;4.462;2023-08-06T14:11:56;8.55;;;2.13;;
23680;SDS011;62915;50.832;4.462;2023-08-06T14:14:22;11.52;;;1.73;;
23680;SDS011;62915;50.832;4.462;2023-08-06T14:16:51;9.93;;;1.80;;
23680;SDS011;62915;50.832;4.462;2023-08-06T14:19:18;4.90;;;1.45;;
23680;SDS011;62915;50.832;4.462;2023-08-06T14:21:43;5.35;;;1.40;;
23680;SDS011;62915;50.832;4.462;2023-08-06T14:24:09;6.50;;;1.95;;
23680;SDS011;62915;50.832;4.462;2023-08-06T14:26:36;9.30;;;2.00;;
23680;SDS011;62915;50.832;4.462;2023-08-06T14:29:02;7.07;;;1.42;;
23680;SDS011;62915;50.832;4.462;2023-08-06T14:31:28;9.43;;;2.00;;
23680;SDS011;62915;50.832;4.462;2023-08-06T14:33:54;7.10;;;1.58;;
23680;SDS011;62915;50.832;4.462;2023-08-06T14:36:20;8.45;;;2.00;;
23680;SDS011;62915;50.832;4.462;2023-08-06T14:38:47;5.03;;;1.67;;
23680;SDS011;62915;50.832;4.462;2023-08-06T14:41:13;10.25;;;2.22;;
23680;SDS011;62915;50.832;4.462;2023-08-06T14:43:38;7.20;;;2.22;;
23680;SDS011;62915;50.832;4.462;2023-08-06T14:46:04;10.00;;;1.65;;
23680;SDS011;62915;50.832;4.462;2023-08-06T14:48:30;7.93;;;2.20;;
23680;SDS011;62915;50.832;4.462;2023-08-06T14:50:56;8.65;;;2.08;;
23680;SDS011;62915;50.832;4.462;2023-08-06T14:53:22;9.30;;;1.98;;